sensor_id;sensor_type;location;lat;lon;timestamp;pressure;altitude;pressure_sealevel;temperature;humidity
19457;BME280;9867;48.094;11.478;2023-05-08T00:00:11;95423.50;;;16.20;100.00
19457;BME280;9867;48.094;11.478;2023-05-08T00:02:39;95412.84;;;15.75;100.00
19457;BME280;9867;48.094;11.478;2023-05-08T00:05:08;95415.94;;;15.65;100.00
19457;BME280;9867;48.094;11.478;2023-05-08T00:07:36;95413.41;;;15.47;100.00
19457;BME280;9867;48.094;11.478;2023-05-08T00:10:07;95412.16;;;15.20;100.00
19457;BME280;9867;48.094;11.478;2023-05-08T00:12:36;95414.75;;;15.20;100.00
19457;BME280;9867;48.094;11.478;2023-05-08T00:15:05;95417.59;;;15.30;100.00
19457;BME280;9867;48.094;11.478;2023-05-08T00:17:33;95422.66;;;15.55;100.00
19457;BME280;9867;48.094;11.478;2023-05-08T00:20:01;95415.88;;;15.84;100.00
19457;BME280;9867;48.094;11.478;2023-05-08T00:22:29;95412.13;;;15.68;100.00
19457;BME280;9867;48.094;11.478;2023-05-08T00:24:57;95426.09;;;15.19;100.00
19457;BME280;9867;48.094;11.478;2023-05-08T00:27:26;95429.34;;;14.96;100.00
19457;BME280;9867;48.094;11.478;2023-05-08T00:29:54;95431.91;;;14.96;100.00
19457;BME280;9867;48.094;11.478;2023-05-08T00:32:22;95429.41;;;14.71;100.00
19457;BME280;9867;48.094;11.478;2023-05-08T00:34:50;95425.44;;;14.50;100.00
19457;BME280;9867;48.094;11.478;2023-05-08T00:37:17;95421.91;;;14.45;100.00
19457;BME280;9867;48.094;11.478;2023-05-08T00:39:45;95428.25;;;14.49;100.00
19457;BME280;9867;48.094;11.478;2023-05-08T00:42:13;95422.28;;;14.23;100.00
19457;BME280;9867;48.094;11.478;2023-05-08T00:44:44;95425.66;;;14.24;100.00
19457;BME280;9867;48.094;11.478;2023-05-08T00:47:12;95429.88;;;14.43;100.00
19457;BME280;9867;48.094;11.478;2023-05-08T00:49:41;95423.38;;;14.41;100.00
19457;BME280;9867;48.094;11.478;2023-05-08T00:52:10;95425.03;;;14.53;100.00
19457;BME280;9867;48.094;11.478;2023-05-08T00:54:39;95419.06;;;15.08;100.00
19457;BME280;9867;48.094;11.478;2023-05-08T00:57:07;95419.38;;;14.81;100.00
19457;BME280;9867;48.094;11.478;2023-05-08T00:59:35;95426.06;;;14.46;100.00
19457;BME280;9867;48.094;11.478;2023-05-08T01:02:05;95407.22;;;14.20;100.00
19457;BME280;9867;48.094;11.478;2023-05-08T01:04:34;95414.66;;;14.10;100.00
19457;BME280;9867;48.094;11.478;2023-05-08T01:07:03;95412.16;;;14.22;100.00
19457;BME280;9867;48.094;11.478;2023-05-08T01:09:31;95412.25;;;14.15;100.00
19457;BME280;9867;48.094;11.478;2023-05-08T01:12:07;95409.13;;;14.07;100.00
19457;BME280;9867;48.094;11.478;2023-05-08T01:14:48;95405.34;;;14.09;100.00
19457;BME280;9867;48.094;11.478;2023-05-08T01:17:23;95398.56;;;14.15;100.00
19457;BME280;9867;48.094;11.478;2023-05-08T01:20:00;95412.53;;;14.25;100.00
19457;BME280;9867;48.094;11.478;2023-05-08T01:29:19;95416.16;;;14.43;100.00
19457;BME280;9867;48.094;11.478;2023-05-08T01:32:16;95415.13;;;14.25;100.00
19457;BME280;9867;48.094;11.478;2023-05-08T01:34:51;95417.75;;;14.19;100.00
19457;BME280;9867;48.094;11.478;2023-05-08T01:37:28;95422.97;;;14.37;100.00
19457;BME280;9867;48.094;11.478;2023-05-08T01:40:04;95426.03;;;14.27;100.00
19457;BME280;9867;48.094;11.478;2023-05-08T01:42:42;95422.69;;;14.20;100.00
19457;BME280;9867;48.094;11.478;2023-05-08T01:45:14;95421.84;;;14.26;100.00
19457;BME280;9867;48.094;11.478;2023-05-08T01:47:48;95418.91;;;14.23;100.00
19457;BME280;9867;48.094;11.478;2023-05-08T01:50:23;95434.75;;;14.26;100.00
19457;BME280;9867;48.094;11.478;2023-05-08T01:52:57;95436.34;;;14.27;100.00
19457;BME280;9867;48.094;11.478;2023-05-08T01:55:26;95436.19;;;14.22;100.00
19457;BME280;9867;48.094;11.478;2023-05-08T01:57:57;95437.13;;;14.28;100.00
19457;BME280;9867;48.094;11.478;2023-05-08T02:00:26;95432.34;;;14.31;100.00
19457;BME280;9867;48.094;11.478;2023-05-08T02:02:58;95432.44;;;14.18;100.00
19457;BME280;9867;48.094;11.478;2023-05-08T02:05:27;95430.91;;;14.36;100.00
19457;BME280;9867;48.094;11.478;2023-05-08T02:07:56;95428.75;;;14.32;100.00
19457;BME280;9867;48.094;11.478;2023-05-08T02:10:25;95432.69;;;14.17;100.00
19457;BME280;9867;48.094;11.478;2023-05-08T02:12:54;95423.59;;;14.08;100.00
19457;BME280;9867;48.094;11.478;2023-05-08T02:15:24;95433.13;;;14.07;100.00
19457;BME280;9867;48.094;11.478;2023-05-08T02:17:54;95441.03;;;14.12;100.00
19457;BME280;9867;48.094;11.478;2023-05-08T02:20:25;95444.56;;;14.18;100.00
19457;BME280;9867;48.094;11.478;2023-05-08T02:22:54;95438.66;;;14.11;100.00
19457;BME280;9867;48.094;11.478;2023-05-08T02:25:24;95439.19;;;14.19;100.00
19457;BME280;9867;48.094;11.478;2023-05-08T02:27:53;95441.25;;;14.60;100.00
19457;BME280;9867;48.094;11.478;2023-05-08T02:30:24;95440.88;;;14.93;100.00
19457;BME280;9867;48.094;11.478;2023-05-08T02:32:54;95446.03;;;15.30;100.00
19457;BME280;9867;48.094;11.478;2023-05-08T02:35:29;95447.88;;;15.41;100.00
19457;BME280;9867;48.094;11.478;2023-05-08T02:37:58;95453.19;;;15.46;100.00
19457;BME280;9867;48.094;11.478;2023-05-08T02:40:27;95450.00;;;15.62;100.00
19457;BME280;9867;48.094;11.478;2023-05-08T02:42:56;95462.22;;;15.74;100.00
19457;BME280;9867;48.094;11.478;2023-05-08T02:45:28;95465.16;;;15.77;100.00
19457;BME280;9867;48.094;11.478;2023-05-08T02:48:05;95460.94;;;15.46;100.00
19457;BME280;9867;48.094;11.478;2023-05-08T02:50:44;95458.50;;;15.51;100.00
19457;BME280;9867;48.094;11.478;2023-05-08T02:53:22;95461.91;;;15.82;100.00
19457;BME280;9867;48.094;11.478;2023-05-08T02:55:53;95456.16;;;15.80;100.00
19457;BME280;9867;48.094;11.478;2023-05-08T02:58:29;95469.34;;;15.90;100.00
19457;BME280;9867;48.094;11.478;2023-05-08T03:01:00;95471.13;;;15.89;100.00
19457;BME280;9867;48.094;11.478;2023-05-08T03:03:36;95460.13;;;15.82;100.00
19457;BME280;9867;48.094;11.478;2023-05-08T03:06:11;95471.66;;;15.50;100.00
19457;BME280;9867;48.094;11.478;2023-05-08T03:08:41;95485.16;;;15.15;100.00
19457;BME280;9867;48.094;11.478;2023-05-08T03:11:12;95473.94;;;15.10;100.00
19457;BME280;9867;48.094;11.478;2023-05-08T03:13:44;95484.38;;;15.15;100.00
19457;BME280;9867;48.094;11.478;2023-05-08T03:16:17;95475.13;;;15.25;100.00
19457;BME280;9867;48.094;11.478;2023-05-08T03:18:51;95475.28;;;15.30;100.00
19457;BME280;9867;48.094;11.478;2023-05-08T03:21:23;95479.78;;;15.35;100.00
19457;BME280;9867;48.094;11.478;2023-05-08T03:23:54;95487.38;;;15.48;100.00
19457;BME280;9867;48.094;11.478;2023-05-08T03:26:24;95475.81;;;15.51;100.00
19457;BME280;9867;48.094;11.478;2023-05-08T03:28:53;95475.69;;;15.46;100.00
19457;BME280;9867;48.094;11.478;2023-05-08T03:31:26;95482.94;;;15.37;100.00
19457;BME280;9867;48.094;11.478;2023-05-08T03:33:55;95474.88;;;15.45;100.00
19457;BME280;9867;48.094;11.478;2023-05-08T03:36:25;95487.13;;;15.20;100.00
19457;BME280;9867;48.094;11.478;2023-05-08T03:38:54;95492.38;;;15.31;100.00
19457;BME280;9867;48.094;11.478;2023-05-08T03:41:24;95479.22;;;15.15;100.00
19457;BME280;9867;48.094;11.478;2023-05-08T03:43:52;95483.59;;;14.78;100.00
19457;BME280;9867;48.094;11.478;2023-05-08T03:46:22;95483.44;;;14.91;100.00
19457;BME280;9867;48.094;11.478;2023-05-08T03:48:50;95483.53;;;14.84;100.00
19457;BME280;9867;48.094;11.478;2023-05-08T03:51:20;95487.53;;;14.80;100.00
19457;BME280;9867;48.094;11.478;2023-05-08T03:53:51;95494.28;;;14.99;100.00
19457;BME280;9867;48.094;11.478;2023-05-08T03:56:19;95494.44;;;15.05;100.00
19457;BME280;9867;48.094;11.478;2023-05-08T03:58:54;95494.28;;;15.18;100.00
19457;BME280;9867;48.094;11.478;2023-05-08T04:01:27;95497.06;;;14.80;100.00
19457;BME280;9867;48.094;11.478;2023-05-08T04:06:49;95491.50;;;14.83;100.00
19457;BME280;9867;48.094;11.478;2023-05-08T04:09:27;95496.72;;;14.76;100.00
19457;BME280;9867;48.094;11.478;2023-05-08T04:12:02;95507.63;;;14.78;100.00
19457;BME280;9867;48.094;11.478;2023-05-08T04:14:35;95505.84;;;14.79;100.00
19457;BME280;9867;48.094;11.478;2023-05-08T04:17:08;95513.16;;;14.82;100.00
19457;BME280;9867;48.094;11.478;2023-05-08T04:19:39;95506.66;;;14.73;100.00
19457;BME280;9867;48.094;11.478;2023-05-08T04:22:10;95512.97;;;14.58;100.00
19457;BME280;9867;48.094;11.478;2023-05-08T04:24:43;95517.50;;;14.63;100.00
19457;BME280;9867;48.094;11.478;2023-05-08T04:27:12;95517.72;;;14.61;100.00
19457;BME280;9867;48.094;11.478;2023-05-08T04:29:40;95528.72;;;14.75;100.00
19457;BME280;9867;48.094;11.478;2023-05-08T04:32:09;95524.13;;;14.77;100.00
19457;BME280;9867;48.094;11.478;2023-05-08T04:34:38;95524.91;;;14.78;100.00
19457;BME280;9867;48.094;11.478;2023-05-08T04:37:06;95518.78;;;14.72;100.00
19457;BME280;9867;48.094;11.478;2023-05-08T04:39:34;95523.47;;;14.63;100.00
19457;BME280;9867;48.094;11.478;2023-05-08T04:42:04;95527.75;;;14.70;100.00
19457;BME280;9867;48.094;11.478;2023-05-08T04:44:33;95533.44;;;14.78;100.00
19457;BME280;9867;48.094;11.478;2023-05-08T04:47:01;95533.41;;;14.85;100.00
19457;BME280;9867;48.094;11.478;2023-05-08T04:49:29;95532.13;;;14.69;100.00
19457;BME280;9867;48.094;11.478;2023-05-08T04:51:57;95536.09;;;14.47;100.00
19457;BME280;9867;48.094;11.478;2023-05-08T04:54:25;95540.28;;;14.66;100.00
19457;BME280;9867;48.094;11.478;2023-05-08T04:56:53;95542.94;;;14.84;100.00
19457;BME280;9867;48.094;11.478;2023-05-08T04:59:22;95536.56;;;14.87;100.00
19457;BME280;9867;48.094;11.478;2023-05-08T05:01:51;95549.97;;;14.95;100.00
19457;BME280;9867;48.094;11.478;2023-05-08T05:04:20;95545.91;;;15.06;100.00
19457;BME280;9867;48.094;11.478;2023-05-08T05:06:48;95545.19;;;14.74;100.00
19457;BME280;9867;48.094;11.478;2023-05-08T05:09:16;95544.63;;;14.47;100.00
19457;BME280;9867;48.094;11.478;2023-05-08T05:11:44;95550.31;;;14.56;100.00
19457;BME280;9867;48.094;11.478;2023-05-08T05:14:12;95550.31;;;14.56;100.00
19457;BME280;9867;48.094;11.478;2023-05-08T05:16:41;95550.38;;;14.49;100.00
19457;BME280;9867;48.094;11.478;2023-05-08T05:19:09;95548.16;;;14.21;100.00
19457;BME280;9867;48.094;11.478;2023-05-08T05:21:37;95551.47;;;14.28;100.00
19457;BME280;9867;48.094;11.478;2023-05-08T05:24:06;95548.00;;;14.48;100.00
19457;BME280;9867;48.094;11.478;2023-05-08T05:26:35;95551.31;;;14.55;100.00
19457;BME280;9867;48.094;11.478;2023-05-08T05:29:03;95550.09;;;14.26;100.00
19457;BME280;9867;48.094;11.478;2023-05-08T05:31:31;95551.91;;;14.25;100.00
19457;BME280;9867;48.094;11.478;2023-05-08T05:34:00;95561.91;;;14.15;100.00
19457;BME280;9867;48.094;11.478;2023-05-08T05:36:28;95565.34;;;14.34;100.00
19457;BME280;9867;48.094;11.478;2023-05-08T05:38:56;95564.81;;;14.25;100.00
19457;BME280;9867;48.094;11.478;2023-05-08T05:41:24;95569.44;;;14.17;100.00
19457;BME280;9867;48.094;11.478;2023-05-08T05:43:52;95567.38;;;14.25;100.00
19457;BME280;9867;48.094;11.478;2023-05-08T05:46:21;95563.72;;;14.08;100.00
19457;BME280;9867;48.094;11.478;2023-05-08T05:48:53;95562.19;;;14.32;100.00
19457;BME280;9867;48.094;11.478;2023-05-08T05:51:22;95579.50;;;13.93;100.00
19457;BME280;9867;48.094;11.478;2023-05-08T05:53:50;95565.63;;;13.81;100.00
19457;BME280;9867;48.094;11.478;2023-05-08T05:56:18;95570.22;;;13.79;100.00
19457;BME280;9867;48.094;11.478;2023-05-08T05:58:47;95567.72;;;13.53;100.00
19457;BME280;9867;48.094;11.478;2023-05-08T06:01:15;95573.38;;;13.81;100.00
19457;BME280;9867;48.094;11.478;2023-05-08T06:03:43;95577.63;;;13.62;100.00
19457;BME280;9867;48.094;11.478;2023-05-08T06:06:11;95572.47;;;13.62;100.00
19457;BME280;9867;48.094;11.478;2023-05-08T06:08:40;95574.19;;;13.75;100.00
19457;BME280;9867;48.094;11.478;2023-05-08T06:11:08;95575.88;;;13.94;100.00
19457;BME280;9867;48.094;11.478;2023-05-08T06:13:38;95580.38;;;13.68;100.00
19457;BME280;9867;48.094;11.478;2023-05-08T06:16:06;95580.41;;;13.61;100.00
19457;BME280;9867;48.094;11.478;2023-05-08T06:18:34;95584.31;;;13.77;100.00
19457;BME280;9867;48.094;11.478;2023-05-08T06:21:03;95587.16;;;13.49;100.00
19457;BME280;9867;48.094;11.478;2023-05-08T06:23:30;95580.69;;;13.40;100.00
19457;BME280;9867;48.094;11.478;2023-05-08T06:26:00;95563.66;;;13.25;100.00
19457;BME280;9867;48.094;11.478;2023-05-08T06:28:27;95570.22;;;13.21;100.00
19457;BME280;9867;48.094;11.478;2023-05-08T06:30:55;95580.09;;;13.31;100.00
19457;BME280;9867;48.094;11.478;2023-05-08T06:33:23;95577.91;;;13.35;100.00
19457;BME280;9867;48.094;11.478;2023-05-08T06:35:52;95579.63;;;13.54;100.00
19457;BME280;9867;48.094;11.478;2023-05-08T06:38:20;95595.56;;;13.05;100.00
19457;BME280;9867;48.094;11.478;2023-05-08T06:40:48;95585.19;;;13.51;100.00
19457;BME280;9867;48.094;11.478;2023-05-08T06:43:17;95585.13;;;13.71;100.00
19457;BME280;9867;48.094;11.478;2023-05-08T06:45:45;95577.75;;;13.81;100.00
19457;BME280;9867;48.094;11.478;2023-05-08T06:48:13;95589.66;;;13.75;100.00
19457;BME280;9867;48.094;11.478;2023-05-08T06:50:41;95593.59;;;13.91;100.00
19457;BME280;9867;48.094;11.478;2023-05-08T06:53:09;95596.91;;;13.98;100.00
19457;BME280;9867;48.094;11.478;2023-05-08T06:55:36;95601.66;;;14.01;100.00
19457;BME280;9867;48.094;11.478;2023-05-08T06:58:04;95599.94;;;13.88;100.00
19457;BME280;9867;48.094;11.478;2023-05-08T07:00:34;95603.34;;;13.82;100.00
19457;BME280;9867;48.094;11.478;2023-05-08T07:03:01;95602.63;;;14.07;100.00
19457;BME280;9867;48.094;11.478;2023-05-08T07:05:29;95594.47;;;14.10;100.00
19457;BME280;9867;48.094;11.478;2023-05-08T07:07:57;95597.91;;;13.97;100.00
19457;BME280;9867;48.094;11.478;2023-05-08T07:10:25;95602.84;;;13.98;100.00
19457;BME280;9867;48.094;11.478;2023-05-08T07:12:53;95596.25;;;14.09;100.00
19457;BME280;9867;48.094;11.478;2023-05-08T07:15:20;95603.41;;;14.07;100.00
19457;BME280;9867;48.094;11.478;2023-05-08T07:17:53;95606.56;;;14.16;100.00
19457;BME280;9867;48.094;11.478;2023-05-08T07:20:21;95606.81;;;14.01;100.00
19457;BME280;9867;48.094;11.478;2023-05-08T07:22:50;95605.56;;;14.17;100.00
19457;BME280;9867;48.094;11.478;2023-05-08T07:25:17;95601.81;;;14.13;100.00
19457;BME280;9867;48.094;11.478;2023-05-08T07:27:46;95605.22;;;14.00;100.00
19457;BME280;9867;48.094;11.478;2023-05-08T07:30:14;95604.72;;;13.85;100.00
19457;BME280;9867;48.094;11.478;2023-05-08T07:32:42;95613.03;;;13.93;100.00
19457;BME280;9867;48.094;11.478;2023-05-08T07:35:11;95613.25;;;14.23;100.00
19457;BME280;9867;48.094;11.478;2023-05-08T07:37:39;95614.78;;;14.38;100.00
19457;BME280;9867;48.094;11.478;2023-05-08T07:40:07;95617.28;;;14.13;100.00
19457;BME280;9867;48.094;11.478;2023-05-08T07:42:39;95618.22;;;13.80;100.00
19457;BME280;9867;48.094;11.478;2023-05-08T07:45:08;95619.03;;;14.19;100.00
19457;BME280;9867;48.094;11.478;2023-05-08T07:47:37;95616.97;;;14.34;100.00
19457;BME280;9867;48.094;11.478;2023-05-08T07:50:06;95619.50;;;14.47;100.00
19457;BME280;9867;48.094;11.478;2023-05-08T07:52:35;95628.16;;;14.21;100.00
19457;BME280;9867;48.094;11.478;2023-05-08T07:55:03;95622.78;;;14.61;100.00
19457;BME280;9867;48.094;11.478;2023-05-08T07:57:35;95624.72;;;14.65;100.00
19457;BME280;9867;48.094;11.478;2023-05-08T08:00:04;95624.22;;;15.07;100.00
19457;BME280;9867;48.094;11.478;2023-05-08T08:02:38;95622.69;;;14.99;100.00
19457;BME280;9867;48.094;11.478;2023-05-08T08:05:07;95635.34;;;15.32;100.00
19457;BME280;9867;48.094;11.478;2023-05-08T08:07:37;95635.25;;;15.39;100.00
19457;BME280;9867;48.094;11.478;2023-05-08T08:10:06;95633.53;;;15.32;100.00
19457;BME280;9867;48.094;11.478;2023-05-08T08:12:34;95631.81;;;15.26;100.00
19457;BME280;9867;48.094;11.478;2023-05-08T08:15:02;95629.59;;;15.30;100.00
19457;BME280;9867;48.094;11.478;2023-05-08T08:17:30;95633.84;;;14.68;100.00
19457;BME280;9867;48.094;11.478;2023-05-08T08:19:58;95632.66;;;14.32;100.00
19457;BME280;9867;48.094;11.478;2023-05-08T08:22:26;95625.50;;;14.34;100.00
19457;BME280;9867;48.094;11.478;2023-05-08T08:24:55;95634.06;;;14.66;100.00
19457;BME280;9867;48.094;11.478;2023-05-08T08:27:24;95624.94;;;14.89;100.00
19457;BME280;9867;48.094;11.478;2023-05-08T08:29:52;95634.28;;;14.90;100.00
19457;BME280;9867;48.094;11.478;2023-05-08T08:32:38;95635.13;;;15.33;100.00
19457;BME280;9867;48.094;11.478;2023-05-08T08:35:06;95639.66;;;15.13;100.00
19457;BME280;9867;48.094;11.478;2023-05-08T08:37:34;95638.19;;;15.24;100.00
19457;BME280;9867;48.094;11.478;2023-05-08T08:40:05;95641.09;;;15.52;100.00
19457;BME280;9867;48.094;11.478;2023-05-08T08:42:33;95634.44;;;15.63;100.00
19457;BME280;9867;48.094;11.478;2023-05-08T08:45:01;95642.66;;;15.78;100.00
19457;BME280;9867;48.094;11.478;2023-05-08T08:47:34;95643.66;;;15.59;100.00
19457;BME280;9867;48.094;11.478;2023-05-08T08:50:03;95633.69;;;15.81;100.00
19457;BME280;9867;48.094;11.478;2023-05-08T08:52:38;95634.09;;;15.96;100.00
19457;BME280;9867;48.094;11.478;2023-05-08T08:55:10;95632.41;;;16.50;100.00
19457;BME280;9867;48.094;11.478;2023-05-08T08:57:47;95625.06;;;16.88;100.00
19457;BME280;9867;48.094;11.478;2023-05-08T09:00:20;95625.97;;;16.82;100.00
19457;BME280;9867;48.094;11.478;2023-05-08T09:02:49;95629.78;;;16.68;100.00
19457;BME280;9867;48.094;11.478;2023-05-08T09:05:17;95633.41;;;16.90;100.00
19457;BME280;9867;48.094;11.478;2023-05-08T09:07:45;95626.19;;;16.81;100.00
19457;BME280;9867;48.094;11.478;2023-05-08T09:10:15;95625.06;;;16.77;100.00
19457;BME280;9867;48.094;11.478;2023-05-08T09:12:43;95635.25;;;16.30;100.00
19457;BME280;9867;48.094;11.478;2023-05-08T09:15:11;95633.13;;;16.38;100.00
19457;BME280;9867;48.094;11.478;2023-05-08T09:17:40;95640.41;;;16.30;100.00
19457;BME280;9867;48.094;11.478;2023-05-08T09:20:08;95634.13;;;16.08;100.00
19457;BME280;9867;48.094;11.478;2023-05-08T09:22:37;95636.56;;;16.51;100.00
19457;BME280;9867;48.094;11.478;2023-05-08T09:25:06;95635.63;;;16.15;100.00
19457;BME280;9867;48.094;11.478;2023-05-08T09:27:35;95620.91;;;16.16;100.00
19457;BME280;9867;48.094;11.478;2023-05-08T09:30:05;95630.31;;;16.10;100.00
19457;BME280;9867;48.094;11.478;2023-05-08T09:32:34;95630.78;;;15.89;100.00
19457;BME280;9867;48.094;11.478;2023-05-08T09:35:03;95634.97;;;15.72;100.00
19457;BME280;9867;48.094;11.478;2023-05-08T09:37:32;95634.06;;;16.44;100.00
19457;BME280;9867;48.094;11.478;2023-05-08T09:40:15;95627.16;;;16.26;100.00
19457;BME280;9867;48.094;11.478;2023-05-08T09:42:46;95635.00;;;16.20;100.00
19457;BME280;9867;48.094;11.478;2023-05-08T09:45:27;95632.28;;;16.56;100.00
19457;BME280;9867;48.094;11.478;2023-05-08T09:47:56;95633.91;;;16.99;100.00
19457;BME280;9867;48.094;11.478;2023-05-08T09:50:24;95633.13;;;17.22;100.00
19457;BME280;9867;48.094;11.478;2023-05-08T09:52:53;95630.53;;;17.68;100.00
19457;BME280;9867;48.094;11.478;2023-05-08T09:55:21;95633.34;;;17.67;100.00
19457;BME280;9867;48.094;11.478;2023-05-08T09:57:54;95638.16;;;17.63;100.00
19457;BME280;9867;48.094;11.478;2023-05-08T10:00:24;95635.00;;;17.61;100.00
19457;BME280;9867;48.094;11.478;2023-05-08T10:02:56;95633.16;;;17.97;100.00
19457;BME280;9867;48.094;11.478;2023-05-08T10:05:26;95638.91;;;17.99;100.00
19457;BME280;9867;48.094;11.478;2023-05-08T10:07:56;95634.47;;;18.11;100.00
19457;BME280;9867;48.094;11.478;2023-05-08T10:10:24;95633.78;;;17.41;100.00
19457;BME280;9867;48.094;11.478;2023-05-08T10:12:56;95636.72;;;17.67;100.00
19457;BME280;9867;48.094;11.478;2023-05-08T10:15:27;95638.19;;;18.15;100.00
19457;BME280;9867;48.094;11.478;2023-05-08T10:18:02;95628.06;;;18.59;100.00
19457;BME280;9867;48.094;11.478;2023-05-08T10:20:32;95641.00;;;18.70;100.00
19457;BME280;9867;48.094;11.478;2023-05-08T10:23:00;95634.66;;;19.12;100.00
19457;BME280;9867;48.094;11.478;2023-05-08T10:25:31;95634.91;;;19.10;100.00
19457;BME280;9867;48.094;11.478;2023-05-08T10:28:06;95629.28;;;18.68;100.00
19457;BME280;9867;48.094;11.478;2023-05-08T10:30:38;95629.53;;;18.83;100.00
19457;BME280;9867;48.094;11.478;2023-05-08T10:33:12;95634.78;;;18.71;100.00
19457;BME280;9867;48.094;11.478;2023-05-08T10:35:41;95630.00;;;18.63;100.00
19457;BME280;9867;48.094;11.478;2023-05-08T10:38:10;95630.63;;;18.70;100.00
19457;BME280;9867;48.094;11.478;2023-05-08T10:40:38;95635.47;;;19.12;100.00
19457;BME280;9867;48.094;11.478;2023-05-08T10:43:08;95624.09;;;19.01;100.00
19457;BME280;9867;48.094;11.478;2023-05-08T10:45:37;95627.31;;;18.47;100.00
19457;BME280;9867;48.094;11.478;2023-05-08T10:48:12;95634.88;;;18.48;100.00
19457;BME280;9867;48.094;11.478;2023-05-08T10:50:57;95619.50;;;18.30;100.00
19457;BME280;9867;48.094;11.478;2023-05-08T10:53:35;95622.06;;;18.87;100.00
19457;BME280;9867;48.094;11.478;2023-05-08T10:56:04;95620.41;;;18.97;100.00
19457;BME280;9867;48.094;11.478;2023-05-08T10:58:35;95627.63;;;18.79;100.00
19457;BME280;9867;48.094;11.478;2023-05-08T11:01:15;95619.81;;;18.33;100.00
19457;BME280;9867;48.094;11.478;2023-05-08T11:03:45;95619.84;;;18.79;100.00
19457;BME280;9867;48.094;11.478;2023-05-08T11:06:13;95614.47;;;19.19;100.00
19457;BME280;9867;48.094;11.478;2023-05-08T11:08:46;95617.16;;;19.24;100.00
19457;BME280;9867;48.094;11.478;2023-05-08T11:11:26;95611.19;;;19.06;100.00
19457;BME280;9867;48.094;11.478;2023-05-08T11:13:58;95626.88;;;19.12;100.00
19457;BME280;9867;48.094;11.478;2023-05-08T11:17:04;95617.41;;;18.89;100.00
19457;BME280;9867;48.094;11.478;2023-05-08T11:19:34;95617.09;;;18.85;100.00
19457;BME280;9867;48.094;11.478;2023-05-08T11:22:22;95617.41;;;19.05;100.00
19457;BME280;9867;48.094;11.478;2023-05-08T11:24:56;95618.44;;;19.04;100.00
19457;BME280;9867;48.094;11.478;2023-05-08T11:27:36;95614.22;;;19.54;100.00
19457;BME280;9867;48.094;11.478;2023-05-08T11:30:20;95615.88;;;19.26;100.00
19457;BME280;9867;48.094;11.478;2023-05-08T11:33:10;95611.63;;;19.54;100.00
19457;BME280;9867;48.094;11.478;2023-05-08T11:35:41;95612.59;;;19.91;100.00
19457;BME280;9867;48.094;11.478;2023-05-08T11:38:18;95617.16;;;19.79;100.00
19457;BME280;9867;48.094;11.478;2023-05-08T11:40:47;95616.94;;;19.86;100.00
19457;BME280;9867;48.094;11.478;2023-05-08T11:43:23;95612.41;;;19.98;100.00
19457;BME280;9867;48.094;11.478;2023-05-08T11:45:59;95614.78;;;19.78;100.00
19457;BME280;9867;48.094;11.478;2023-05-08T11:48:27;95613.94;;;19.94;100.00
19457;BME280;9867;48.094;11.478;2023-05-08T11:50:55;95611.63;;;19.75;100.00
19457;BME280;9867;48.094;11.478;2023-05-08T11:53:23;95619.66;;;19.52;100.00
19457;BME280;9867;48.094;11.478;2023-05-08T11:55:57;95616.91;;;19.25;100.00
19457;BME280;9867;48.094;11.478;2023-05-08T11:58:26;95608.16;;;19.31;100.00
19457;BME280;9867;48.094;11.478;2023-05-08T12:00:55;95618.03;;;18.96;100.00
19457;BME280;9867;48.094;11.478;2023-05-08T12:03:24;95613.47;;;18.86;100.00
19457;BME280;9867;48.094;11.478;2023-05-08T12:05:54;95609.25;;;19.19;100.00
19457;BME280;9867;48.094;11.478;2023-05-08T12:08:25;95623.41;;;18.89;100.00
19457;BME280;9867;48.094;11.478;2023-05-08T12:10:55;95624.38;;;19.38;100.00
19457;BME280;9867;48.094;11.478;2023-05-08T12:13:25;95605.41;;;19.21;100.00
19457;BME280;9867;48.094;11.478;2023-05-08T12:15:59;95620.00;;;19.78;100.00
19457;BME280;9867;48.094;11.478;2023-05-08T12:18:27;95624.03;;;19.90;100.00
19457;BME280;9867;48.094;11.478;2023-05-08T12:20:57;95620.44;;;19.53;100.00
19457;BME280;9867;48.094;11.478;2023-05-08T12:23:27;95624.53;;;19.49;100.00
19457;BME280;9867;48.094;11.478;2023-05-08T12:26:00;95621.97;;;19.70;100.00
19457;BME280;9867;48.094;11.478;2023-05-08T12:28:29;95623.06;;;19.74;100.00
19457;BME280;9867;48.094;11.478;2023-05-08T12:30:59;95620.06;;;20.04;100.00
19457;BME280;9867;48.094;11.478;2023-05-08T12:33:27;95618.97;;;20.00;100.00
19457;BME280;9867;48.094;11.478;2023-05-08T12:35:56;95626.16;;;19.93;100.00
19457;BME280;9867;48.094;11.478;2023-05-08T12:38:25;95611.75;;;19.86;100.00
19457;BME280;9867;48.094;11.478;2023-05-08T12:40:53;95620.72;;;19.73;100.00
19457;BME280;9867;48.094;11.478;2023-05-08T12:43:30;95618.59;;;19.92;100.00
19457;BME280;9867;48.094;11.478;2023-05-08T12:46:00;95623.97;;;19.85;100.00
19457;BME280;9867;48.094;11.478;2023-05-08T12:48:28;95616.91;;;19.25;100.00
19457;BME280;9867;48.094;11.478;2023-05-08T12:51:01;95619.34;;;19.32;100.00
19457;BME280;9867;48.094;11.478;2023-05-08T12:53:31;95622.03;;;19.54;100.00
19457;BME280;9867;48.094;11.478;2023-05-08T12:56:01;95609.97;;;19.31;100.00
19457;BME280;9867;48.094;11.478;2023-05-08T12:58:31;95614.34;;;19.64;100.00
19457;BME280;9867;48.094;11.478;2023-05-08T13:01:08;95615.31;;;19.58;100.00
19457;BME280;9867;48.094;11.478;2023-05-08T13:03:39;95615.88;;;19.60;100.00
19457;BME280;9867;48.094;11.478;2023-05-08T13:06:18;95619.72;;;19.57;100.00
19457;BME280;9867;48.094;11.478;2023-05-08T13:08:52;95611.38;;;19.38;100.00
19457;BME280;9867;48.094;11.478;2023-05-08T13:11:27;95619.28;;;19.27;100.00
19457;BME280;9867;48.094;11.478;2023-05-08T13:13:56;95611.41;;;19.22;100.00
19457;BME280;9867;48.094;11.478;2023-05-08T13:16:25;95619.31;;;19.10;100.00